TML weather

Tamale Airport
Tamale, Northern Region, Ghana

Public forecast

Using degrees Celsius for public forecast. Weather courtesy of forecast.io.

METAR (pilot weather report)

Report is more than 6 hours old.

Retrieved 2019/02/02 17:00 UTC (4 months ago):

DGLE 021700Z 00000KT 8000 36/18 QNH1009 NOSIG

TAF (pilot weather forecast)

Closest forecast is Niamtougou International Airport, 116.4 nm (215.5 km) E. Retrieved 2019/05/26 12:48 UTC (2 hours ago):

TAF DXNG 261100Z 2612/2712 VRB05KT 9999 SCT008 PROB40 TEMPO 2618/2703 TS BKN008 FEW018CB